sensor_id;sensor_type;location;lat;lon;timestamp;P1;durP1;ratioP1;P2;durP2;ratioP2
30169;SDS011;46426;51.368;5.254;2022-07-01T00:00:10;6.70;;;4.72;;
30169;SDS011;46426;51.368;5.254;2022-07-01T00:00:45;8.77;;;5.07;;
30169;SDS011;46426;51.368;5.254;2022-07-01T00:01:17;5.75;;;4.95;;
30169;SDS011;46426;51.368;5.254;2022-07-01T00:01:49;5.50;;;4.88;;
30169;SDS011;46426;51.368;5.254;2022-07-01T00:02:21;5.93;;;4.75;;
30169;SDS011;46426;51.368;5.254;2022-07-01T00:02:54;5.60;;;4.97;;
30169;SDS011;46426;51.368;5.254;2022-07-01T00:03:26;5.13;;;4.63;;
30169;SDS011;46426;51.368;5.254;2022-07-01T00:03:58;8.15;;;5.43;;
30169;SDS011;46426;51.368;5.254;2022-07-01T00:04:31;7.18;;;5.55;;
30169;SDS011;46426;51.368;5.254;2022-07-01T00:05:21;6.15;;;5.20;;
30169;SDS011;46426;51.368;5.254;2022-07-01T00:05:53;7.20;;;4.90;;
30169;SDS011;46426;51.368;5.254;2022-07-01T00:06:25;6.65;;;5.32;;
30169;SDS011;46426;51.368;5.254;2022-07-01T00:06:57;6.95;;;4.85;;
30169;SDS011;46426;51.368;5.254;2022-07-01T00:07:30;5.85;;;5.10;;
30169;SDS011;46426;51.368;5.254;2022-07-01T00:08:02;7.35;;;5.03;;
30169;SDS011;46426;51.368;5.254;2022-07-01T00:08:34;6.80;;;5.00;;
30169;SDS011;46426;51.368;5.254;2022-07-01T00:09:06;7.13;;;5.10;;
30169;SDS011;46426;51.368;5.254;2022-07-01T00:09:38;5.93;;;5.28;;
30169;SDS011;46426;51.368;5.254;2022-07-01T00:10:12;6.22;;;5.32;;
30169;SDS011;46426;51.368;5.254;2022-07-01T00:10:44;8.52;;;5.32;;
30169;SDS011;46426;51.368;5.254;2022-07-01T00:11:16;6.68;;;5.57;;
30169;SDS011;46426;51.368;5.254;2022-07-01T00:11:49;7.40;;;5.75;;
30169;SDS011;46426;51.368;5.254;2022-07-01T00:12:22;6.38;;;5.45;;
30169;SDS011;46426;51.368;5.254;2022-07-01T00:12:54;8.27;;;6.07;;
30169;SDS011;46426;51.368;5.254;2022-07-01T00:13:26;7.05;;;6.22;;
30169;SDS011;46426;51.368;5.254;2022-07-01T00:13:58;7.05;;;6.07;;
30169;SDS011;46426;51.368;5.254;2022-07-01T00:14:30;9.25;;;6.15;;
30169;SDS011;46426;51.368;5.254;2022-07-01T00:15:02;8.43;;;5.93;;
30169;SDS011;46426;51.368;5.254;2022-07-01T00:15:35;6.95;;;5.75;;
30169;SDS011;46426;51.368;5.254;2022-07-01T00:16:07;7.70;;;6.00;;
30169;SDS011;46426;51.368;5.254;2022-07-01T00:16:40;7.93;;;6.68;;
30169;SDS011;46426;51.368;5.254;2022-07-01T00:17:12;8.20;;;5.72;;
30169;SDS011;46426;51.368;5.254;2022-07-01T00:17:44;7.00;;;6.30;;
30169;SDS011;46426;51.368;5.254;2022-07-01T00:18:16;8.10;;;5.65;;
30169;SDS011;46426;51.368;5.254;2022-07-01T00:18:48;7.18;;;6.03;;
30169;SDS011;46426;51.368;5.254;2022-07-01T00:19:21;7.93;;;5.68;;
30169;SDS011;46426;51.368;5.254;2022-07-01T00:19:53;6.40;;;5.47;;
30169;SDS011;46426;51.368;5.254;2022-07-01T00:20:26;7.28;;;5.93;;
30169;SDS011;46426;51.368;5.254;2022-07-01T00:20:58;8.63;;;6.90;;
30169;SDS011;46426;51.368;5.254;2022-07-01T00:21:32;6.93;;;6.07;;
30169;SDS011;46426;51.368;5.254;2022-07-01T00:22:05;11.80;;;6.72;;
30169;SDS011;46426;51.368;5.254;2022-07-01T00:22:37;8.68;;;6.30;;
30169;SDS011;46426;51.368;5.254;2022-07-01T00:23:09;9.10;;;6.43;;
30169;SDS011;46426;51.368;5.254;2022-07-01T00:23:41;8.85;;;6.95;;
30169;SDS011;46426;51.368;5.254;2022-07-01T00:24:14;10.60;;;7.65;;
30169;SDS011;46426;51.368;5.254;2022-07-01T00:24:46;8.15;;;6.53;;
30169;SDS011;46426;51.368;5.254;2022-07-01T00:25:20;8.63;;;5.65;;
30169;SDS011;46426;51.368;5.254;2022-07-01T00:25:52;7.60;;;6.13;;
30169;SDS011;46426;51.368;5.254;2022-07-01T00:26:25;8.32;;;6.53;;
30169;SDS011;46426;51.368;5.254;2022-07-01T00:26:57;10.70;;;6.90;;
30169;SDS011;46426;51.368;5.254;2022-07-01T00:27:29;9.07;;;6.35;;
30169;SDS011;46426;51.368;5.254;2022-07-01T00:28:01;8.68;;;6.35;;
30169;SDS011;46426;51.368;5.254;2022-07-01T00:28:33;9.07;;;6.70;;
30169;SDS011;46426;51.368;5.254;2022-07-01T00:29:05;7.78;;;6.60;;
30169;SDS011;46426;51.368;5.254;2022-07-01T00:29:38;8.23;;;6.75;;
30169;SDS011;46426;51.368;5.254;2022-07-01T00:30:11;8.38;;;6.55;;
30169;SDS011;46426;51.368;5.254;2022-07-01T00:30:43;11.20;;;7.55;;
30169;SDS011;46426;51.368;5.254;2022-07-01T00:31:15;8.70;;;6.45;;
30169;SDS011;46426;51.368;5.254;2022-07-01T00:31:47;10.52;;;6.85;;
30169;SDS011;46426;51.368;5.254;2022-07-01T00:32:19;9.57;;;7.25;;
30169;SDS011;46426;51.368;5.254;2022-07-01T00:32:51;8.82;;;6.65;;
30169;SDS011;46426;51.368;5.254;2022-07-01T00:33:25;10.32;;;6.43;;
30169;SDS011;46426;51.368;5.254;2022-07-01T00:33:57;11.27;;;6.90;;
30169;SDS011;46426;51.368;5.254;2022-07-01T00:34:29;10.02;;;6.97;;
30169;SDS011;46426;51.368;5.254;2022-07-01T00:35:02;7.70;;;6.32;;
30169;SDS011;46426;51.368;5.254;2022-07-01T00:35:34;11.07;;;6.93;;
30169;SDS011;46426;51.368;5.254;2022-07-01T00:36:06;9.27;;;7.07;;
30169;SDS011;46426;51.368;5.254;2022-07-01T00:36:38;9.80;;;6.97;;
30169;SDS011;46426;51.368;5.254;2022-07-01T00:37:10;10.20;;;6.38;;
30169;SDS011;46426;51.368;5.254;2022-07-01T00:37:42;10.38;;;7.22;;
30169;SDS011;46426;51.368;5.254;2022-07-01T00:38:15;10.30;;;6.72;;
30169;SDS011;46426;51.368;5.254;2022-07-01T00:38:47;8.38;;;6.60;;
30169;SDS011;46426;51.368;5.254;2022-07-01T00:39:19;9.90;;;7.63;;
30169;SDS011;46426;51.368;5.254;2022-07-01T00:39:51;9.77;;;6.78;;
30169;SDS011;46426;51.368;5.254;2022-07-01T00:40:23;11.75;;;7.03;;
30169;SDS011;46426;51.368;5.254;2022-07-01T00:40:56;10.25;;;7.35;;
30169;SDS011;46426;51.368;5.254;2022-07-01T00:41:28;11.25;;;7.57;;
30169;SDS011;46426;51.368;5.254;2022-07-01T00:42:01;10.90;;;7.38;;
30169;SDS011;46426;51.368;5.254;2022-07-01T00:42:37;10.93;;;7.53;;
30169;SDS011;46426;51.368;5.254;2022-07-01T00:43:09;8.98;;;6.30;;
30169;SDS011;46426;51.368;5.254;2022-07-01T00:43:41;9.35;;;7.10;;
30169;SDS011;46426;51.368;5.254;2022-07-01T00:44:25;9.90;;;7.20;;
30169;SDS011;46426;51.368;5.254;2022-07-01T00:44:57;10.65;;;7.38;;
30169;SDS011;46426;51.368;5.254;2022-07-01T00:45:29;10.57;;;7.40;;
30169;SDS011;46426;51.368;5.254;2022-07-01T00:46:01;10.32;;;7.20;;
30169;SDS011;46426;51.368;5.254;2022-07-01T00:46:34;11.85;;;7.30;;
30169;SDS011;46426;51.368;5.254;2022-07-01T00:47:11;10.52;;;7.35;;
30169;SDS011;46426;51.368;5.254;2022-07-01T00:47:44;8.88;;;6.45;;
30169;SDS011;46426;51.368;5.254;2022-07-01T00:48:16;12.40;;;6.82;;
30169;SDS011;46426;51.368;5.254;2022-07-01T00:48:50;12.13;;;7.10;;
30169;SDS011;46426;51.368;5.254;2022-07-01T00:49:22;10.38;;;7.22;;
30169;SDS011;46426;51.368;5.254;2022-07-01T00:49:55;10.57;;;7.00;;
30169;SDS011;46426;51.368;5.254;2022-07-01T00:50:27;13.05;;;7.60;;
30169;SDS011;46426;51.368;5.254;2022-07-01T00:50:59;12.77;;;7.80;;
30169;SDS011;46426;51.368;5.254;2022-07-01T00:51:31;11.25;;;7.00;;
30169;SDS011;46426;51.368;5.254;2022-07-01T00:52:04;13.57;;;7.55;;
30169;SDS011;46426;51.368;5.254;2022-07-01T00:52:37;11.70;;;7.07;;
30169;SDS011;46426;51.368;5.254;2022-07-01T00:53:10;12.18;;;7.60;;
30169;SDS011;46426;51.368;5.254;2022-07-01T00:53:42;11.48;;;6.90;;
30169;SDS011;46426;51.368;5.254;2022-07-01T00:54:14;13.40;;;7.38;;
30169;SDS011;46426;51.368;5.254;2022-07-01T00:54:47;11.32;;;7.57;;
30169;SDS011;46426;51.368;5.254;2022-07-01T00:55:19;9.10;;;6.15;;
30169;SDS011;46426;51.368;5.254;2022-07-01T00:55:51;10.00;;;6.82;;
30169;SDS011;46426;51.368;5.254;2022-07-01T00:56:23;9.23;;;6.80;;
30169;SDS011;46426;51.368;5.254;2022-07-01T00:56:55;10.82;;;7.45;;
30169;SDS011;46426;51.368;5.254;2022-07-01T00:57:31;11.43;;;7.07;;
30169;SDS011;46426;51.368;5.254;2022-07-01T00:58:03;12.07;;;7.57;;
30169;SDS011;46426;51.368;5.254;2022-07-01T00:58:35;10.60;;;6.53;;
30169;SDS011;46426;51.368;5.254;2022-07-01T00:59:09;10.05;;;6.97;;
30169;SDS011;46426;51.368;5.254;2022-07-01T00:59:41;11.07;;;7.30;;
30169;SDS011;46426;51.368;5.254;2022-07-01T01:00:15;11.13;;;7.32;;
30169;SDS011;46426;51.368;5.254;2022-07-01T01:00:51;8.57;;;6.50;;
30169;SDS011;46426;51.368;5.254;2022-07-01T01:01:23;10.52;;;6.80;;
30169;SDS011;46426;51.368;5.254;2022-07-01T01:01:56;10.75;;;7.13;;
30169;SDS011;46426;51.368;5.254;2022-07-01T01:02:28;11.93;;;6.82;;
30169;SDS011;46426;51.368;5.254;2022-07-01T01:03:00;11.50;;;7.63;;
30169;SDS011;46426;51.368;5.254;2022-07-01T01:03:32;11.45;;;7.70;;
30169;SDS011;46426;51.368;5.254;2022-07-01T01:04:04;10.63;;;6.88;;
30169;SDS011;46426;51.368;5.254;2022-07-01T01:04:37;12.23;;;7.80;;
30169;SDS011;46426;51.368;5.254;2022-07-01T01:05:10;11.63;;;7.50;;
30169;SDS011;46426;51.368;5.254;2022-07-01T01:05:42;11.25;;;6.57;;
30169;SDS011;46426;51.368;5.254;2022-07-01T01:06:14;12.68;;;8.48;;
30169;SDS011;46426;51.368;5.254;2022-07-01T01:06:46;11.23;;;7.30;;
30169;SDS011;46426;51.368;5.254;2022-07-01T01:07:19;12.27;;;7.40;;
30169;SDS011;46426;51.368;5.254;2022-07-01T01:07:51;10.13;;;7.47;;
30169;SDS011;46426;51.368;5.254;2022-07-01T01:08:23;10.38;;;7.18;;
30169;SDS011;46426;51.368;5.254;2022-07-01T01:08:55;10.05;;;6.90;;
30169;SDS011;46426;51.368;5.254;2022-07-01T01:09:28;14.13;;;7.88;;
30169;SDS011;46426;51.368;5.254;2022-07-01T01:10:02;12.05;;;7.60;;
30169;SDS011;46426;51.368;5.254;2022-07-01T01:10:35;10.95;;;7.07;;
30169;SDS011;46426;51.368;5.254;2022-07-01T01:11:07;10.23;;;6.72;;
30169;SDS011;46426;51.368;5.254;2022-07-01T01:11:39;10.10;;;7.00;;
30169;SDS011;46426;51.368;5.254;2022-07-01T01:12:11;11.98;;;7.05;;
30169;SDS011;46426;51.368;5.254;2022-07-01T01:12:44;14.15;;;8.35;;
30169;SDS011;46426;51.368;5.254;2022-07-01T01:13:16;10.05;;;7.38;;
30169;SDS011;46426;51.368;5.254;2022-07-01T01:13:48;10.30;;;6.40;;
30169;SDS011;46426;51.368;5.254;2022-07-01T01:14:20;10.32;;;7.15;;
30169;SDS011;46426;51.368;5.254;2022-07-01T01:14:54;10.95;;;7.07;;
30169;SDS011;46426;51.368;5.254;2022-07-01T01:15:26;9.95;;;6.25;;
30169;SDS011;46426;51.368;5.254;2022-07-01T01:15:59;10.75;;;7.03;;
30169;SDS011;46426;51.368;5.254;2022-07-01T01:16:32;11.25;;;7.22;;
30169;SDS011;46426;51.368;5.254;2022-07-01T01:17:07;12.10;;;7.63;;
30169;SDS011;46426;51.368;5.254;2022-07-01T01:17:39;11.75;;;7.03;;
30169;SDS011;46426;51.368;5.254;2022-07-01T01:18:11;12.63;;;7.53;;
30169;SDS011;46426;51.368;5.254;2022-07-01T01:18:43;13.77;;;7.72;;
30169;SDS011;46426;51.368;5.254;2022-07-01T01:19:15;12.67;;;7.97;;
30169;SDS011;46426;51.368;5.254;2022-07-01T01:19:48;11.20;;;7.95;;
30169;SDS011;46426;51.368;5.254;2022-07-01T01:20:20;11.00;;;7.55;;
30169;SDS011;46426;51.368;5.254;2022-07-01T01:20:53;10.52;;;7.50;;
30169;SDS011;46426;51.368;5.254;2022-07-01T01:21:25;10.63;;;7.45;;
30169;SDS011;46426;51.368;5.254;2022-07-01T01:21:58;11.23;;;7.15;;
30169;SDS011;46426;51.368;5.254;2022-07-01T01:22:31;11.98;;;7.53;;
30169;SDS011;46426;51.368;5.254;2022-07-01T01:23:03;11.70;;;7.50;;
30169;SDS011;46426;51.368;5.254;2022-07-01T01:23:36;10.43;;;7.45;;
30169;SDS011;46426;51.368;5.254;2022-07-01T01:24:08;13.45;;;7.45;;
30169;SDS011;46426;51.368;5.254;2022-07-01T01:24:40;12.43;;;7.53;;
30169;SDS011;46426;51.368;5.254;2022-07-01T01:25:13;13.27;;;7.82;;
30169;SDS011;46426;51.368;5.254;2022-07-01T01:25:48;13.18;;;7.28;;
30169;SDS011;46426;51.368;5.254;2022-07-01T01:26:21;11.48;;;7.82;;
30169;SDS011;46426;51.368;5.254;2022-07-01T01:26:53;11.25;;;7.35;;
30169;SDS011;46426;51.368;5.254;2022-07-01T01:27:25;13.10;;;7.57;;
30169;SDS011;46426;51.368;5.254;2022-07-01T01:27:57;12.32;;;7.57;;
30169;SDS011;46426;51.368;5.254;2022-07-01T01:28:29;11.02;;;7.38;;
30169;SDS011;46426;51.368;5.254;2022-07-01T01:29:02;10.05;;;7.18;;
30169;SDS011;46426;51.368;5.254;2022-07-01T01:29:34;11.32;;;7.18;;
30169;SDS011;46426;51.368;5.254;2022-07-01T01:30:08;11.45;;;7.32;;
30169;SDS011;46426;51.368;5.254;2022-07-01T01:30:40;10.50;;;6.90;;
30169;SDS011;46426;51.368;5.254;2022-07-01T01:31:12;11.52;;;7.10;;
30169;SDS011;46426;51.368;5.254;2022-07-01T01:31:44;11.70;;;6.28;;
30169;SDS011;46426;51.368;5.254;2022-07-01T01:32:18;12.30;;;6.93;;
30169;SDS011;46426;51.368;5.254;2022-07-01T01:32:50;10.40;;;6.70;;
30169;SDS011;46426;51.368;5.254;2022-07-01T01:33:22;10.73;;;6.82;;
30169;SDS011;46426;51.368;5.254;2022-07-01T01:33:54;12.02;;;7.30;;
30169;SDS011;46426;51.368;5.254;2022-07-01T01:34:26;12.18;;;6.97;;
30169;SDS011;46426;51.368;5.254;2022-07-01T01:34:58;10.05;;;6.57;;
30169;SDS011;46426;51.368;5.254;2022-07-01T01:35:31;11.32;;;7.20;;
30169;SDS011;46426;51.368;5.254;2022-07-01T01:36:03;11.02;;;6.75;;
30169;SDS011;46426;51.368;5.254;2022-07-01T01:36:35;11.23;;;7.05;;
30169;SDS011;46426;51.368;5.254;2022-07-01T01:37:08;10.70;;;6.55;;
30169;SDS011;46426;51.368;5.254;2022-07-01T01:37:40;14.60;;;7.72;;
30169;SDS011;46426;51.368;5.254;2022-07-01T01:38:12;11.95;;;7.55;;
30169;SDS011;46426;51.368;5.254;2022-07-01T01:38:44;10.27;;;7.05;;
30169;SDS011;46426;51.368;5.254;2022-07-01T01:39:16;11.70;;;7.10;;
30169;SDS011;46426;51.368;5.254;2022-07-01T01:39:48;10.75;;;7.05;;
30169;SDS011;46426;51.368;5.254;2022-07-01T01:40:20;10.88;;;6.68;;
30169;SDS011;46426;51.368;5.254;2022-07-01T01:40:52;12.40;;;7.30;;
30169;SDS011;46426;51.368;5.254;2022-07-01T01:41:27;11.38;;;6.78;;
30169;SDS011;46426;51.368;5.254;2022-07-01T01:41:59;9.60;;;7.15;;
30169;SDS011;46426;51.368;5.254;2022-07-01T01:42:32;12.45;;;7.18;;
30169;SDS011;46426;51.368;5.254;2022-07-01T01:43:04;11.67;;;7.00;;
30169;SDS011;46426;51.368;5.254;2022-07-01T01:43:36;12.15;;;7.60;;
30169;SDS011;46426;51.368;5.254;2022-07-01T01:44:08;11.90;;;6.88;;
30169;SDS011;46426;51.368;5.254;2022-07-01T01:44:40;10.73;;;6.43;;
30169;SDS011;46426;51.368;5.254;2022-07-01T01:45:13;9.90;;;6.80;;
30169;SDS011;46426;51.368;5.254;2022-07-01T01:45:45;11.82;;;7.25;;
30169;SDS011;46426;51.368;5.254;2022-07-01T01:46:17;10.90;;;7.20;;
30169;SDS011;46426;51.368;5.254;2022-07-01T01:46:50;10.65;;;6.85;;
30169;SDS011;46426;51.368;5.254;2022-07-01T01:47:22;10.55;;;7.15;;
30169;SDS011;46426;51.368;5.254;2022-07-01T01:47:54;10.03;;;6.60;;
30169;SDS011;46426;51.368;5.254;2022-07-01T01:48:26;10.93;;;7.43;;
30169;SDS011;46426;51.368;5.254;2022-07-01T01:48:58;12.10;;;7.10;;
30169;SDS011;46426;51.368;5.254;2022-07-01T01:49:30;10.90;;;6.80;;
30169;SDS011;46426;51.368;5.254;2022-07-01T01:50:04;9.93;;;7.00;;
30169;SDS011;46426;51.368;5.254;2022-07-01T01:50:36;9.87;;;6.70;;
30169;SDS011;46426;51.368;5.254;2022-07-01T01:51:08;10.27;;;7.13;;
30169;SDS011;46426;51.368;5.254;2022-07-01T01:51:40;11.13;;;6.70;;
30169;SDS011;46426;51.368;5.254;2022-07-01T01:52:13;10.93;;;7.40;;
30169;SDS011;46426;51.368;5.254;2022-07-01T01:52:45;11.05;;;6.68;;
30169;SDS011;46426;51.368;5.254;2022-07-01T01:53:17;10.95;;;7.07;;
30169;SDS011;46426;51.368;5.254;2022-07-01T01:53:49;11.50;;;6.73;;
30169;SDS011;46426;51.368;5.254;2022-07-01T01:54:21;12.10;;;6.80;;
30169;SDS011;46426;51.368;5.254;2022-07-01T01:54:53;12.15;;;7.45;;
30169;SDS011;46426;51.368;5.254;2022-07-01T01:55:25;8.35;;;6.32;;
30169;SDS011;46426;51.368;5.254;2022-07-01T01:55:57;10.25;;;6.65;;
30169;SDS011;46426;51.368;5.254;2022-07-01T01:56:29;10.97;;;6.80;;
30169;SDS011;46426;51.368;5.254;2022-07-01T01:57:02;11.15;;;5.95;;
30169;SDS011;46426;51.368;5.254;2022-07-01T01:57:35;9.88;;;6.57;;
30169;SDS011;46426;51.368;5.254;2022-07-01T01:58:07;11.43;;;6.70;;
30169;SDS011;46426;51.368;5.254;2022-07-01T01:58:39;11.07;;;7.35;;
30169;SDS011;46426;51.368;5.254;2022-07-01T01:59:14;11.25;;;7.07;;
30169;SDS011;46426;51.368;5.254;2022-07-01T01:59:46;8.38;;;6.85;;
30169;SDS011;46426;51.368;5.254;2022-07-01T02:00:18;13.20;;;7.18;;
30169;SDS011;46426;51.368;5.254;2022-07-01T02:00:51;9.85;;;6.53;;
30169;SDS011;46426;51.368;5.254;2022-07-01T02:01:23;10.52;;;6.60;;
30169;SDS011;46426;51.368;5.254;2022-07-01T02:01:55;12.55;;;7.13;;
30169;SDS011;46426;51.368;5.254;2022-07-01T02:02:27;10.23;;;6.50;;
30169;SDS011;46426;51.368;5.254;2022-07-01T02:02:59;11.25;;;6.55;;
30169;SDS011;46426;51.368;5.254;2022-07-01T02:03:31;9.57;;;6.80;;
30169;SDS011;46426;51.368;5.254;2022-07-01T02:04:04;12.00;;;6.90;;
30169;SDS011;46426;51.368;5.254;2022-07-01T02:04:37;10.40;;;6.97;;
30169;SDS011;46426;51.368;5.254;2022-07-01T02:05:10;8.43;;;5.80;;
30169;SDS011;46426;51.368;5.254;2022-07-01T02:05:42;11.98;;;7.15;;
30169;SDS011;46426;51.368;5.254;2022-07-01T02:06:18;8.30;;;5.80;;
30169;SDS011;46426;51.368;5.254;2022-07-01T02:06:51;10.97;;;7.00;;
30169;SDS011;46426;51.368;5.254;2022-07-01T02:07:23;8.07;;;6.13;;
30169;SDS011;46426;51.368;5.254;2022-07-01T02:07:55;10.85;;;7.00;;
30169;SDS011;46426;51.368;5.254;2022-07-01T02:08:27;9.63;;;6.03;;
30169;SDS011;46426;51.368;5.254;2022-07-01T02:08:59;8.88;;;6.18;;
30169;SDS011;46426;51.368;5.254;2022-07-01T02:09:31;10.93;;;6.45;;
30169;SDS011;46426;51.368;5.254;2022-07-01T02:10:03;10.10;;;6.63;;
30169;SDS011;46426;51.368;5.254;2022-07-01T02:10:35;10.27;;;6.23;;
30169;SDS011;46426;51.368;5.254;2022-07-01T02:11:08;9.70;;;6.28;;
30169;SDS011;46426;51.368;5.254;2022-07-01T02:11:40;8.43;;;6.33;;
30169;SDS011;46426;51.368;5.254;2022-07-01T02:12:12;9.75;;;6.63;;
30169;SDS011;46426;51.368;5.254;2022-07-01T02:12:44;9.63;;;6.63;;
30169;SDS011;46426;51.368;5.254;2022-07-01T02:13:16;9.85;;;6.18;;
30169;SDS011;46426;51.368;5.254;2022-07-01T02:13:48;10.90;;;6.70;;
30169;SDS011;46426;51.368;5.254;2022-07-01T02:14:20;9.80;;;6.15;;
30169;SDS011;46426;51.368;5.254;2022-07-01T02:14:52;9.25;;;6.50;;
30169;SDS011;46426;51.368;5.254;2022-07-01T02:15:24;8.27;;;5.82;;
30169;SDS011;46426;51.368;5.254;2022-07-01T02:15:56;11.48;;;6.60;;
30169;SDS011;46426;51.368;5.254;2022-07-01T02:16:28;9.15;;;6.22;;
30169;SDS011;46426;51.368;5.254;2022-07-01T02:17:01;9.20;;;5.77;;
30169;SDS011;46426;51.368;5.254;2022-07-01T02:17:33;8.93;;;5.80;;
30169;SDS011;46426;51.368;5.254;2022-07-01T02:18:05;11.90;;;6.85;;
30169;SDS011;46426;51.368;5.254;2022-07-01T02:18:37;9.60;;;6.40;;
30169;SDS011;46426;51.368;5.254;2022-07-01T02:19:10;10.07;;;6.30;;
30169;SDS011;46426;51.368;5.254;2022-07-01T02:19:42;10.20;;;5.90;;
30169;SDS011;46426;51.368;5.254;2022-07-01T02:20:14;8.52;;;5.43;;
30169;SDS011;46426;51.368;5.254;2022-07-01T02:20:46;9.23;;;6.50;;
30169;SDS011;46426;51.368;5.254;2022-07-01T02:21:18;9.80;;;6.15;;
30169;SDS011;46426;51.368;5.254;2022-07-01T02:21:50;9.50;;;5.55;;
30169;SDS011;46426;51.368;5.254;2022-07-01T02:22:22;9.90;;;5.65;;
30169;SDS011;46426;51.368;5.254;2022-07-01T02:22:55;10.27;;;5.38;;
30169;SDS011;46426;51.368;5.254;2022-07-01T02:23:27;8.77;;;5.50;;
30169;SDS011;46426;51.368;5.254;2022-07-01T02:24:00;8.05;;;5.68;;
30169;SDS011;46426;51.368;5.254;2022-07-01T02:24:32;9.13;;;5.20;;
30169;SDS011;46426;51.368;5.254;2022-07-01T02:25:05;8.68;;;5.53;;
30169;SDS011;46426;51.368;5.254;2022-07-01T02:25:37;9.50;;;6.37;;
30169;SDS011;46426;51.368;5.254;2022-07-01T02:26:09;10.77;;;6.22;;
30169;SDS011;46426;51.368;5.254;2022-07-01T02:26:41;8.10;;;5.75;;
30169;SDS011;46426;51.368;5.254;2022-07-01T02:27:14;10.60;;;6.13;;
30169;SDS011;46426;51.368;5.254;2022-07-01T02:27:46;9.80;;;5.85;;
30169;SDS011;46426;51.368;5.254;2022-07-01T02:28:18;10.18;;;6.00;;
30169;SDS011;46426;51.368;5.254;2022-07-01T02:28:50;8.90;;;5.25;;
30169;SDS011;46426;51.368;5.254;2022-07-01T02:29:22;7.33;;;5.50;;
30169;SDS011;46426;51.368;5.254;2022-07-01T02:29:54;7.35;;;5.35;;
30169;SDS011;46426;51.368;5.254;2022-07-01T02:30:26;10.07;;;5.83;;
30169;SDS011;46426;51.368;5.254;2022-07-01T02:30:59;7.70;;;5.13;;
30169;SDS011;46426;51.368;5.254;2022-07-01T02:31:31;8.25;;;6.20;;
30169;SDS011;46426;51.368;5.254;2022-07-01T02:32:03;10.60;;;5.75;;
30169;SDS011;46426;51.368;5.254;2022-07-01T02:32:35;7.22;;;5.47;;
30169;SDS011;46426;51.368;5.254;2022-07-01T02:33:08;12.30;;;5.63;;
30169;SDS011;46426;51.368;5.254;2022-07-01T02:33:40;8.25;;;5.32;;
30169;SDS011;46426;51.368;5.254;2022-07-01T02:34:12;9.95;;;6.20;;
30169;SDS011;46426;51.368;5.254;2022-07-01T02:34:44;7.20;;;5.43;;
30169;SDS011;46426;51.368;5.254;2022-07-01T02:35:16;8.90;;;5.90;;
30169;SDS011;46426;51.368;5.254;2022-07-01T02:35:48;10.25;;;5.93;;
30169;SDS011;46426;51.368;5.254;2022-07-01T02:36:21;10.18;;;5.97;;
30169;SDS011;46426;51.368;5.254;2022-07-01T02:36:53;10.30;;;5.60;;
30169;SDS011;46426;51.368;5.254;2022-07-01T02:37:27;9.43;;;6.30;;
30169;SDS011;46426;51.368;5.254;2022-07-01T02:37:59;8.52;;;5.57;;
30169;SDS011;46426;51.368;5.254;2022-07-01T02:38:31;9.60;;;6.07;;
30169;SDS011;46426;51.368;5.254;2022-07-01T02:39:03;7.35;;;5.45;;
30169;SDS011;46426;51.368;5.254;2022-07-01T02:39:35;8.52;;;6.25;;
30169;SDS011;46426;51.368;5.254;2022-07-01T02:40:07;7.70;;;5.43;;
30169;SDS011;46426;51.368;5.254;2022-07-01T02:40:41;9.50;;;6.20;;
30169;SDS011;46426;51.368;5.254;2022-07-01T02:41:13;9.10;;;6.03;;
30169;SDS011;46426;51.368;5.254;2022-07-01T02:41:45;11.00;;;6.15;;
30169;SDS011;46426;51.368;5.254;2022-07-01T02:42:35;7.80;;;6.33;;
30169;SDS011;46426;51.368;5.254;2022-07-01T02:43:08;10.90;;;6.37;;
30169;SDS011;46426;51.368;5.254;2022-07-01T02:43:41;11.82;;;5.85;;
30169;SDS011;46426;51.368;5.254;2022-07-01T02:44:13;9.83;;;6.37;;
30169;SDS011;46426;51.368;5.254;2022-07-01T02:44:45;10.27;;;6.40;;
30169;SDS011;46426;51.368;5.254;2022-07-01T02:45:17;9.02;;;6.57;;
30169;SDS011;46426;51.368;5.254;2022-07-01T02:45:49;8.80;;;6.47;;
30169;SDS011;46426;51.368;5.254;2022-07-01T02:46:21;10.63;;;6.95;;
30169;SDS011;46426;51.368;5.254;2022-07-01T02:46:53;10.25;;;6.07;;
30169;SDS011;46426;51.368;5.254;2022-07-01T02:47:30;10.97;;;6.17;;
30169;SDS011;46426;51.368;5.254;2022-07-01T02:48:02;11.37;;;5.93;;
30169;SDS011;46426;51.368;5.254;2022-07-01T02:48:34;12.65;;;6.88;;
30169;SDS011;46426;51.368;5.254;2022-07-01T02:49:06;10.05;;;6.55;;
30169;SDS011;46426;51.368;5.254;2022-07-01T02:49:38;9.05;;;6.50;;
30169;SDS011;46426;51.368;5.254;2022-07-01T02:50:12;10.93;;;6.70;;
30169;SDS011;46426;51.368;5.254;2022-07-01T02:50:47;9.05;;;6.57;;
30169;SDS011;46426;51.368;5.254;2022-07-01T02:51:19;10.82;;;6.85;;
30169;SDS011;46426;51.368;5.254;2022-07-01T02:51:51;10.80;;;6.30;;
30169;SDS011;46426;51.368;5.254;2022-07-01T02:52:23;11.07;;;7.03;;
30169;SDS011;46426;51.368;5.254;2022-07-01T02:52:55;10.20;;;6.23;;
30169;SDS011;46426;51.368;5.254;2022-07-01T02:53:28;10.32;;;6.47;;
30169;SDS011;46426;51.368;5.254;2022-07-01T02:54:00;12.57;;;6.23;;
30169;SDS011;46426;51.368;5.254;2022-07-01T02:54:32;10.03;;;6.37;;
30169;SDS011;46426;51.368;5.254;2022-07-01T02:55:05;7.15;;;5.88;;
30169;SDS011;46426;51.368;5.254;2022-07-01T02:55:37;12.23;;;6.90;;
30169;SDS011;46426;51.368;5.254;2022-07-01T02:56:09;8.55;;;5.88;;
30169;SDS011;46426;51.368;5.254;2022-07-01T02:56:41;8.75;;;6.40;;
30169;SDS011;46426;51.368;5.254;2022-07-01T02:57:13;10.33;;;6.50;;
30169;SDS011;46426;51.368;5.254;2022-07-01T02:57:46;8.70;;;6.37;;
30169;SDS011;46426;51.368;5.254;2022-07-01T02:58:21;11.17;;;7.23;;
30169;SDS011;46426;51.368;5.254;2022-07-01T02:58:53;10.27;;;7.20;;
30169;SDS011;46426;51.368;5.254;2022-07-01T02:59:25;8.70;;;6.30;;
30169;SDS011;46426;51.368;5.254;2022-07-01T02:59:57;12.18;;;6.30;;
30169;SDS011;46426;51.368;5.254;2022-07-01T03:00:29;14.20;;;7.00;;
30169;SDS011;46426;51.368;5.254;2022-07-01T03:01:01;8.65;;;6.22;;
30169;SDS011;46426;51.368;5.254;2022-07-01T03:01:33;13.50;;;7.33;;
30169;SDS011;46426;51.368;5.254;2022-07-01T03:02:05;9.40;;;6.22;;
30169;SDS011;46426;51.368;5.254;2022-07-01T03:02:38;10.13;;;6.80;;
30169;SDS011;46426;51.368;5.254;2022-07-01T03:03:10;12.20;;;6.72;;
30169;SDS011;46426;51.368;5.254;2022-07-01T03:03:42;13.23;;;7.13;;
30169;SDS011;46426;51.368;5.254;2022-07-01T03:04:14;9.83;;;6.23;;
30169;SDS011;46426;51.368;5.254;2022-07-01T03:04:47;10.60;;;6.43;;
30169;SDS011;46426;51.368;5.254;2022-07-01T03:05:20;9.97;;;6.93;;
30169;SDS011;46426;51.368;5.254;2022-07-01T03:05:52;10.50;;;6.85;;
30169;SDS011;46426;51.368;5.254;2022-07-01T03:06:24;12.50;;;6.90;;
30169;SDS011;46426;51.368;5.254;2022-07-01T03:06:56;8.77;;;6.82;;
30169;SDS011;46426;51.368;5.254;2022-07-01T03:07:28;9.68;;;7.05;;
30169;SDS011;46426;51.368;5.254;2022-07-01T03:08:01;8.60;;;6.40;;
30169;SDS011;46426;51.368;5.254;2022-07-01T03:08:33;12.95;;;6.88;;
30169;SDS011;46426;51.368;5.254;2022-07-01T03:09:05;10.70;;;7.23;;
30169;SDS011;46426;51.368;5.254;2022-07-01T03:09:37;10.47;;;7.03;;
30169;SDS011;46426;51.368;5.254;2022-07-01T03:10:11;11.93;;;6.80;;
30169;SDS011;46426;51.368;5.254;2022-07-01T03:10:43;10.30;;;6.40;;
30169;SDS011;46426;51.368;5.254;2022-07-01T03:11:15;9.82;;;7.25;;
30169;SDS011;46426;51.368;5.254;2022-07-01T03:11:47;8.60;;;6.68;;
30169;SDS011;46426;51.368;5.254;2022-07-01T03:12:19;11.38;;;7.07;;
30169;SDS011;46426;51.368;5.254;2022-07-01T03:12:59;10.27;;;6.88;;
30169;SDS011;46426;51.368;5.254;2022-07-01T03:13:32;10.48;;;6.55;;
30169;SDS011;46426;51.368;5.254;2022-07-01T03:14:04;10.02;;;7.03;;
30169;SDS011;46426;51.368;5.254;2022-07-01T03:14:36;10.47;;;7.20;;